sensor_id;sensor_type;location;lat;lon;timestamp;temperature;humidity
439;DHT22;206;48.782;9.252;2022-07-10T00:00:13;21.00;48.40
439;DHT22;206;48.782;9.252;2022-07-10T00:02:40;20.90;48.10
439;DHT22;206;48.782;9.252;2022-07-10T00:05:08;20.90;48.40
439;DHT22;206;48.782;9.252;2022-07-10T00:07:34;20.90;48.50
439;DHT22;206;48.782;9.252;2022-07-10T00:10:00;20.90;48.50
439;DHT22;206;48.782;9.252;2022-07-10T00:12:25;20.80;48.40
439;DHT22;206;48.782;9.252;2022-07-10T00:14:52;20.80;47.60
439;DHT22;206;48.782;9.252;2022-07-10T00:17:17;20.80;47.00
439;DHT22;206;48.782;9.252;2022-07-10T00:19:43;20.80;46.60
439;DHT22;206;48.782;9.252;2022-07-10T00:22:09;20.80;46.70
439;DHT22;206;48.782;9.252;2022-07-10T00:24:34;20.70;46.10
439;DHT22;206;48.782;9.252;2022-07-10T00:27:00;20.60;46.40
439;DHT22;206;48.782;9.252;2022-07-10T00:29:26;20.60;46.70
439;DHT22;206;48.782;9.252;2022-07-10T00:31:51;20.60;45.60
439;DHT22;206;48.782;9.252;2022-07-10T00:34:17;20.60;46.10
439;DHT22;206;48.782;9.252;2022-07-10T00:36:43;20.60;46.20
439;DHT22;206;48.782;9.252;2022-07-10T00:39:09;20.50;45.60
439;DHT22;206;48.782;9.252;2022-07-10T00:41:35;20.50;45.90
439;DHT22;206;48.782;9.252;2022-07-10T00:44:02;20.60;46.10
439;DHT22;206;48.782;9.252;2022-07-10T00:46:28;20.60;45.80
439;DHT22;206;48.782;9.252;2022-07-10T00:48:55;20.60;45.50
439;DHT22;206;48.782;9.252;2022-07-10T00:51:24;20.60;45.20
439;DHT22;206;48.782;9.252;2022-07-10T00:53:50;20.60;45.40
439;DHT22;206;48.782;9.252;2022-07-10T00:56:18;20.60;45.50
439;DHT22;206;48.782;9.252;2022-07-10T00:58:46;20.50;45.50
439;DHT22;206;48.782;9.252;2022-07-10T01:01:11;20.50;46.20
439;DHT22;206;48.782;9.252;2022-07-10T01:03:37;20.50;45.90
439;DHT22;206;48.782;9.252;2022-07-10T01:06:03;20.40;46.50
439;DHT22;206;48.782;9.252;2022-07-10T01:08:29;20.30;46.90
439;DHT22;206;48.782;9.252;2022-07-10T01:10:55;20.30;47.70
439;DHT22;206;48.782;9.252;2022-07-10T01:13:21;20.20;47.30
439;DHT22;206;48.782;9.252;2022-07-10T01:15:47;20.20;47.50
439;DHT22;206;48.782;9.252;2022-07-10T01:18:16;20.10;47.30
439;DHT22;206;48.782;9.252;2022-07-10T01:20:42;20.00;47.70
439;DHT22;206;48.782;9.252;2022-07-10T01:23:08;19.90;47.90
439;DHT22;206;48.782;9.252;2022-07-10T01:25:34;19.80;48.80
439;DHT22;206;48.782;9.252;2022-07-10T01:27:59;19.70;49.40
439;DHT22;206;48.782;9.252;2022-07-10T01:30:26;19.60;49.50
439;DHT22;206;48.782;9.252;2022-07-10T01:32:51;19.60;49.70
439;DHT22;206;48.782;9.252;2022-07-10T01:35:20;19.60;49.40
439;DHT22;206;48.782;9.252;2022-07-10T01:37:46;19.70;49.60
439;DHT22;206;48.782;9.252;2022-07-10T01:40:12;19.70;49.60
439;DHT22;206;48.782;9.252;2022-07-10T01:42:38;19.70;49.60
439;DHT22;206;48.782;9.252;2022-07-10T01:45:09;19.70;49.70
439;DHT22;206;48.782;9.252;2022-07-10T01:47:35;19.70;49.60
439;DHT22;206;48.782;9.252;2022-07-10T01:50:02;19.60;50.00
439;DHT22;206;48.782;9.252;2022-07-10T01:52:28;19.60;50.30
439;DHT22;206;48.782;9.252;2022-07-10T01:54:53;19.40;51.30
439;DHT22;206;48.782;9.252;2022-07-10T01:57:19;19.30;52.00
439;DHT22;206;48.782;9.252;2022-07-10T01:59:45;19.20;51.90
439;DHT22;206;48.782;9.252;2022-07-10T02:02:10;19.20;52.80
439;DHT22;206;48.782;9.252;2022-07-10T02:04:36;19.10;53.40
439;DHT22;206;48.782;9.252;2022-07-10T02:07:09;19.00;53.60
439;DHT22;206;48.782;9.252;2022-07-10T02:09:35;18.90;54.30
439;DHT22;206;48.782;9.252;2022-07-10T02:12:01;18.80;54.50
439;DHT22;206;48.782;9.252;2022-07-10T02:14:27;18.70;54.70
439;DHT22;206;48.782;9.252;2022-07-10T02:16:53;18.70;55.00
439;DHT22;206;48.782;9.252;2022-07-10T02:19:18;18.70;55.40
439;DHT22;206;48.782;9.252;2022-07-10T02:21:44;18.70;55.80
439;DHT22;206;48.782;9.252;2022-07-10T02:24:11;18.70;55.90
439;DHT22;206;48.782;9.252;2022-07-10T02:26:37;18.60;56.20
439;DHT22;206;48.782;9.252;2022-07-10T02:29:02;18.70;56.60
439;DHT22;206;48.782;9.252;2022-07-10T02:31:28;18.60;56.70
439;DHT22;206;48.782;9.252;2022-07-10T02:33:53;18.60;57.00
439;DHT22;206;48.782;9.252;2022-07-10T02:36:19;18.60;57.60
439;DHT22;206;48.782;9.252;2022-07-10T02:38:44;18.60;57.70
439;DHT22;206;48.782;9.252;2022-07-10T02:41:10;18.60;58.50
439;DHT22;206;48.782;9.252;2022-07-10T02:43:36;18.60;58.40
439;DHT22;206;48.782;9.252;2022-07-10T02:46:01;18.50;59.40
439;DHT22;206;48.782;9.252;2022-07-10T02:48:28;18.50;59.90
439;DHT22;206;48.782;9.252;2022-07-10T02:50:53;18.40;60.80
439;DHT22;206;48.782;9.252;2022-07-10T02:53:19;18.40;60.80
439;DHT22;206;48.782;9.252;2022-07-10T02:55:44;18.40;60.80
439;DHT22;206;48.782;9.252;2022-07-10T02:58:11;18.30;61.20
439;DHT22;206;48.782;9.252;2022-07-10T03:00:37;18.30;62.50
439;DHT22;206;48.782;9.252;2022-07-10T03:03:02;18.10;63.20
439;DHT22;206;48.782;9.252;2022-07-10T03:05:28;18.20;63.80
439;DHT22;206;48.782;9.252;2022-07-10T03:07:54;18.20;64.20
439;DHT22;206;48.782;9.252;2022-07-10T03:10:20;18.20;64.50
439;DHT22;206;48.782;9.252;2022-07-10T03:12:46;18.20;64.50
439;DHT22;206;48.782;9.252;2022-07-10T03:15:12;18.20;64.00
439;DHT22;206;48.782;9.252;2022-07-10T03:17:38;18.20;64.30
439;DHT22;206;48.782;9.252;2022-07-10T03:20:05;18.30;63.60
439;DHT22;206;48.782;9.252;2022-07-10T03:22:32;18.30;63.40
439;DHT22;206;48.782;9.252;2022-07-10T03:24:58;18.30;63.20
439;DHT22;206;48.782;9.252;2022-07-10T03:27:23;18.30;63.20
439;DHT22;206;48.782;9.252;2022-07-10T03:29:49;18.20;63.50
439;DHT22;206;48.782;9.252;2022-07-10T03:32:15;18.10;64.20
439;DHT22;206;48.782;9.252;2022-07-10T03:34:40;18.00;64.50
439;DHT22;206;48.782;9.252;2022-07-10T03:37:06;18.00;64.60
439;DHT22;206;48.782;9.252;2022-07-10T03:39:32;18.00;64.50
439;DHT22;206;48.782;9.252;2022-07-10T03:41:57;18.00;64.60
439;DHT22;206;48.782;9.252;2022-07-10T03:44:23;18.00;65.00
439;DHT22;206;48.782;9.252;2022-07-10T03:46:49;18.00;64.80
439;DHT22;206;48.782;9.252;2022-07-10T03:49:14;18.00;64.40
439;DHT22;206;48.782;9.252;2022-07-10T03:51:40;18.00;64.60
439;DHT22;206;48.782;9.252;2022-07-10T03:54:06;18.00;64.50
439;DHT22;206;48.782;9.252;2022-07-10T03:56:31;18.00;64.50
439;DHT22;206;48.782;9.252;2022-07-10T03:59:16;18.00;64.20
439;DHT22;206;48.782;9.252;2022-07-10T04:01:41;18.10;63.90
439;DHT22;206;48.782;9.252;2022-07-10T04:04:07;18.10;63.40
439;DHT22;206;48.782;9.252;2022-07-10T04:06:32;18.10;63.10
439;DHT22;206;48.782;9.252;2022-07-10T04:08:58;18.20;63.20
439;DHT22;206;48.782;9.252;2022-07-10T04:11:23;18.20;63.00
439;DHT22;206;48.782;9.252;2022-07-10T04:13:49;18.20;62.10
439;DHT22;206;48.782;9.252;2022-07-10T04:16:15;18.30;61.60
439;DHT22;206;48.782;9.252;2022-07-10T04:18:40;18.30;61.20
439;DHT22;206;48.782;9.252;2022-07-10T04:21:06;18.40;60.80
439;DHT22;206;48.782;9.252;2022-07-10T04:23:33;18.50;60.40
439;DHT22;206;48.782;9.252;2022-07-10T04:25:59;18.60;59.50
439;DHT22;206;48.782;9.252;2022-07-10T04:28:24;18.70;58.70
439;DHT22;206;48.782;9.252;2022-07-10T04:30:50;18.70;58.80
439;DHT22;206;48.782;9.252;2022-07-10T04:33:15;18.60;59.20
439;DHT22;206;48.782;9.252;2022-07-10T04:35:41;18.60;58.90
439;DHT22;206;48.782;9.252;2022-07-10T04:38:06;18.50;59.20
439;DHT22;206;48.782;9.252;2022-07-10T04:40:32;18.50;59.60
439;DHT22;206;48.782;9.252;2022-07-10T04:42:58;18.50;59.60
439;DHT22;206;48.782;9.252;2022-07-10T04:45:23;18.50;59.40
439;DHT22;206;48.782;9.252;2022-07-10T04:47:49;18.50;58.60
439;DHT22;206;48.782;9.252;2022-07-10T04:50:14;18.40;57.90
439;DHT22;206;48.782;9.252;2022-07-10T04:52:40;18.40;58.00
439;DHT22;206;48.782;9.252;2022-07-10T04:55:06;18.40;56.90
439;DHT22;206;48.782;9.252;2022-07-10T04:57:32;18.30;57.30
439;DHT22;206;48.782;9.252;2022-07-10T04:59:57;18.10;58.40
439;DHT22;206;48.782;9.252;2022-07-10T05:02:23;18.00;58.60
439;DHT22;206;48.782;9.252;2022-07-10T05:04:49;18.00;58.20
439;DHT22;206;48.782;9.252;2022-07-10T05:07:14;17.90;58.80
439;DHT22;206;48.782;9.252;2022-07-10T05:09:40;18.00;58.90
439;DHT22;206;48.782;9.252;2022-07-10T05:12:06;18.10;58.10
439;DHT22;206;48.782;9.252;2022-07-10T05:14:32;18.20;58.00
439;DHT22;206;48.782;9.252;2022-07-10T05:16:58;18.20;58.40
439;DHT22;206;48.782;9.252;2022-07-10T05:19:23;18.30;57.30
439;DHT22;206;48.782;9.252;2022-07-10T05:21:49;18.30;57.40
439;DHT22;206;48.782;9.252;2022-07-10T05:24:15;18.30;58.10
439;DHT22;206;48.782;9.252;2022-07-10T05:26:40;18.50;57.40
439;DHT22;206;48.782;9.252;2022-07-10T05:29:06;18.60;56.30
439;DHT22;206;48.782;9.252;2022-07-10T05:31:31;18.50;56.60
439;DHT22;206;48.782;9.252;2022-07-10T05:33:57;18.50;56.70
439;DHT22;206;48.782;9.252;2022-07-10T05:36:23;18.50;54.80
439;DHT22;206;48.782;9.252;2022-07-10T05:38:48;18.50;52.90
439;DHT22;206;48.782;9.252;2022-07-10T05:41:14;18.50;52.30
439;DHT22;206;48.782;9.252;2022-07-10T05:43:39;18.50;51.90
439;DHT22;206;48.782;9.252;2022-07-10T05:46:05;18.60;49.10
439;DHT22;206;48.782;9.252;2022-07-10T05:48:31;18.60;48.80
439;DHT22;206;48.782;9.252;2022-07-10T05:50:57;18.70;48.20
439;DHT22;206;48.782;9.252;2022-07-10T05:53:23;18.50;46.80
439;DHT22;206;48.782;9.252;2022-07-10T05:55:49;18.50;47.60
439;DHT22;206;48.782;9.252;2022-07-10T05:58:15;18.60;45.70
439;DHT22;206;48.782;9.252;2022-07-10T06:00:41;18.70;45.70
439;DHT22;206;48.782;9.252;2022-07-10T06:03:09;18.90;44.70
439;DHT22;206;48.782;9.252;2022-07-10T06:05:35;19.10;42.90
439;DHT22;206;48.782;9.252;2022-07-10T06:08:01;19.30;42.00
439;DHT22;206;48.782;9.252;2022-07-10T06:10:27;19.40;42.10
439;DHT22;206;48.782;9.252;2022-07-10T06:12:52;19.60;39.70
439;DHT22;206;48.782;9.252;2022-07-10T06:15:18;19.70;37.90
439;DHT22;206;48.782;9.252;2022-07-10T06:17:44;20.10;36.20
439;DHT22;206;48.782;9.252;2022-07-10T06:20:09;20.10;35.90
439;DHT22;206;48.782;9.252;2022-07-10T06:22:35;20.30;35.70
439;DHT22;206;48.782;9.252;2022-07-10T06:25:03;20.30;36.50
439;DHT22;206;48.782;9.252;2022-07-10T06:27:30;20.30;37.40
439;DHT22;206;48.782;9.252;2022-07-10T06:29:56;20.50;37.10
439;DHT22;206;48.782;9.252;2022-07-10T06:32:22;20.60;35.10
439;DHT22;206;48.782;9.252;2022-07-10T06:34:47;20.70;33.40
439;DHT22;206;48.782;9.252;2022-07-10T06:37:13;20.40;34.90
439;DHT22;206;48.782;9.252;2022-07-10T06:39:39;20.30;35.40
439;DHT22;206;48.782;9.252;2022-07-10T06:42:07;20.10;36.00
439;DHT22;206;48.782;9.252;2022-07-10T06:44:33;20.00;37.50
439;DHT22;206;48.782;9.252;2022-07-10T06:46:59;19.90;38.30
439;DHT22;206;48.782;9.252;2022-07-10T06:49:44;19.80;39.10
439;DHT22;206;48.782;9.252;2022-07-10T06:52:11;20.00;38.00
439;DHT22;206;48.782;9.252;2022-07-10T06:54:37;19.80;38.30
439;DHT22;206;48.782;9.252;2022-07-10T06:57:03;19.80;38.40
439;DHT22;206;48.782;9.252;2022-07-10T06:59:29;19.80;39.10
439;DHT22;206;48.782;9.252;2022-07-10T07:01:54;19.60;38.00
439;DHT22;206;48.782;9.252;2022-07-10T07:04:20;19.40;38.00
439;DHT22;206;48.782;9.252;2022-07-10T07:06:45;19.60;38.40
439;DHT22;206;48.782;9.252;2022-07-10T07:09:11;20.10;35.30
439;DHT22;206;48.782;9.252;2022-07-10T07:11:37;20.60;33.00
439;DHT22;206;48.782;9.252;2022-07-10T07:14:02;21.10;32.00
439;DHT22;206;48.782;9.252;2022-07-10T07:16:28;21.20;31.50
439;DHT22;206;48.782;9.252;2022-07-10T07:19:04;21.20;29.50
439;DHT22;206;48.782;9.252;2022-07-10T07:21:31;21.10;29.20
439;DHT22;206;48.782;9.252;2022-07-10T07:24:16;20.90;28.60
439;DHT22;206;48.782;9.252;2022-07-10T07:26:44;20.90;29.00
439;DHT22;206;48.782;9.252;2022-07-10T07:29:15;20.90;28.60
439;DHT22;206;48.782;9.252;2022-07-10T07:31:42;20.60;29.50
439;DHT22;206;48.782;9.252;2022-07-10T07:34:07;20.50;30.00
439;DHT22;206;48.782;9.252;2022-07-10T07:36:33;20.90;31.60
439;DHT22;206;48.782;9.252;2022-07-10T07:38:59;21.10;30.50
439;DHT22;206;48.782;9.252;2022-07-10T07:41:25;21.30;32.40
439;DHT22;206;48.782;9.252;2022-07-10T07:43:51;21.40;30.00
439;DHT22;206;48.782;9.252;2022-07-10T07:46:18;21.10;30.00
439;DHT22;206;48.782;9.252;2022-07-10T07:48:44;20.80;30.40
439;DHT22;206;48.782;9.252;2022-07-10T07:51:09;20.90;30.00
439;DHT22;206;48.782;9.252;2022-07-10T07:53:35;21.00;29.50
439;DHT22;206;48.782;9.252;2022-07-10T07:56:01;21.20;29.50
439;DHT22;206;48.782;9.252;2022-07-10T07:58:27;21.30;28.90
439;DHT22;206;48.782;9.252;2022-07-10T08:00:52;21.30;28.80
439;DHT22;206;48.782;9.252;2022-07-10T08:03:18;21.40;27.80
439;DHT22;206;48.782;9.252;2022-07-10T08:05:43;21.20;27.70
439;DHT22;206;48.782;9.252;2022-07-10T08:08:09;21.10;27.20
439;DHT22;206;48.782;9.252;2022-07-10T08:10:36;21.00;27.50
439;DHT22;206;48.782;9.252;2022-07-10T08:13:02;21.10;26.70
439;DHT22;206;48.782;9.252;2022-07-10T08:15:29;21.00;26.30
439;DHT22;206;48.782;9.252;2022-07-10T08:17:57;21.30;25.90
439;DHT22;206;48.782;9.252;2022-07-10T08:20:24;22.10;25.30
439;DHT22;206;48.782;9.252;2022-07-10T08:22:51;23.10;22.90
439;DHT22;206;48.782;9.252;2022-07-10T08:25:19;23.40;22.30
439;DHT22;206;48.782;9.252;2022-07-10T08:27:45;23.20;22.80
439;DHT22;206;48.782;9.252;2022-07-10T08:30:12;23.30;22.40
439;DHT22;206;48.782;9.252;2022-07-10T08:32:39;23.70;21.90
439;DHT22;206;48.782;9.252;2022-07-10T08:35:06;23.90;20.60
439;DHT22;206;48.782;9.252;2022-07-10T08:37:39;23.50;21.20
439;DHT22;206;48.782;9.252;2022-07-10T08:40:06;23.00;22.10
439;DHT22;206;48.782;9.252;2022-07-10T08:42:33;22.80;22.60
439;DHT22;206;48.782;9.252;2022-07-10T08:44:59;22.60;23.10
439;DHT22;206;48.782;9.252;2022-07-10T08:47:25;22.40;23.80
439;DHT22;206;48.782;9.252;2022-07-10T08:49:51;22.40;23.50
439;DHT22;206;48.782;9.252;2022-07-10T08:53:29;22.10;24.10
439;DHT22;206;48.782;9.252;2022-07-10T08:55:24;21.60;24.90
439;DHT22;206;48.782;9.252;2022-07-10T08:57:51;21.50;24.80
439;DHT22;206;48.782;9.252;2022-07-10T09:00:17;21.80;24.70
439;DHT22;206;48.782;9.252;2022-07-10T09:02:43;22.10;23.30
439;DHT22;206;48.782;9.252;2022-07-10T09:05:09;22.20;22.90
439;DHT22;206;48.782;9.252;2022-07-10T09:07:35;22.10;22.60
439;DHT22;206;48.782;9.252;2022-07-10T09:10:06;22.00;22.80
439;DHT22;206;48.782;9.252;2022-07-10T09:15:17;21.60;23.20
439;DHT22;206;48.782;9.252;2022-07-10T09:17:56;21.60;23.20
439;DHT22;206;48.782;9.252;2022-07-10T09:20:33;21.50;22.80
439;DHT22;206;48.782;9.252;2022-07-10T09:23:15;21.60;22.80
439;DHT22;206;48.782;9.252;2022-07-10T09:25:49;21.90;22.10
439;DHT22;206;48.782;9.252;2022-07-10T09:28:17;21.90;21.90
439;DHT22;206;48.782;9.252;2022-07-10T09:30:44;21.90;21.70
439;DHT22;206;48.782;9.252;2022-07-10T09:38:48;22.80;20.90
439;DHT22;206;48.782;9.252;2022-07-10T09:41:23;23.20;19.60
439;DHT22;206;48.782;9.252;2022-07-10T09:44:00;23.30;19.50
439;DHT22;206;48.782;9.252;2022-07-10T09:49:08;22.90;19.40
439;DHT22;206;48.782;9.252;2022-07-10T09:51:42;23.10;19.20
439;DHT22;206;48.782;9.252;2022-07-10T09:54:17;23.10;19.00
439;DHT22;206;48.782;9.252;2022-07-10T09:57:02;23.00;18.80
439;DHT22;206;48.782;9.252;2022-07-10T09:59:31;22.80;18.90
439;DHT22;206;48.782;9.252;2022-07-10T10:01:59;22.80;18.80
439;DHT22;206;48.782;9.252;2022-07-10T10:04:30;22.90;19.00
439;DHT22;206;48.782;9.252;2022-07-10T10:06:59;23.00;18.90
439;DHT22;206;48.782;9.252;2022-07-10T10:09:37;23.30;18.40
439;DHT22;206;48.782;9.252;2022-07-10T10:12:17;23.70;17.90
439;DHT22;206;48.782;9.252;2022-07-10T10:14:45;23.80;18.00
439;DHT22;206;48.782;9.252;2022-07-10T10:17:11;23.50;17.80
439;DHT22;206;48.782;9.252;2022-07-10T10:19:38;23.20;18.10
439;DHT22;206;48.782;9.252;2022-07-10T10:22:27;23.30;17.70
439;DHT22;206;48.782;9.252;2022-07-10T10:24:54;23.30;17.70
439;DHT22;206;48.782;9.252;2022-07-10T10:27:21;23.10;17.50
439;DHT22;206;48.782;9.252;2022-07-10T10:29:48;23.10;17.50
439;DHT22;206;48.782;9.252;2022-07-10T10:32:15;23.40;17.50
439;DHT22;206;48.782;9.252;2022-07-10T10:34:46;23.40;17.10
439;DHT22;206;48.782;9.252;2022-07-10T10:37:39;23.60;17.10
439;DHT22;206;48.782;9.252;2022-07-10T10:40:30;24.00;16.10
439;DHT22;206;48.782;9.252;2022-07-10T10:42:58;24.10;16.30
439;DHT22;206;48.782;9.252;2022-07-10T10:53:23;24.20;15.90
439;DHT22;206;48.782;9.252;2022-07-10T10:58:40;23.70;16.30
439;DHT22;206;48.782;9.252;2022-07-10T11:06:50;22.70;18.10
439;DHT22;206;48.782;9.252;2022-07-10T11:09:30;22.10;19.40
439;DHT22;206;48.782;9.252;2022-07-10T11:12:09;22.10;19.20
439;DHT22;206;48.782;9.252;2022-07-10T11:14:47;22.00;20.20
439;DHT22;206;48.782;9.252;2022-07-10T11:17:14;21.90;20.60
439;DHT22;206;48.782;9.252;2022-07-10T11:19:40;21.90;20.30
439;DHT22;206;48.782;9.252;2022-07-10T11:30:46;22.70;18.70
439;DHT22;206;48.782;9.252;2022-07-10T11:33:14;22.90;17.40
439;DHT22;206;48.782;9.252;2022-07-10T11:35:40;22.80;17.30
439;DHT22;206;48.782;9.252;2022-07-10T11:38:06;22.70;17.40
439;DHT22;206;48.782;9.252;2022-07-10T11:40:38;22.60;17.90
439;DHT22;206;48.782;9.252;2022-07-10T11:43:04;22.90;17.90
439;DHT22;206;48.782;9.252;2022-07-10T11:45:40;23.40;16.80
439;DHT22;206;48.782;9.252;2022-07-10T11:48:06;23.80;15.90
439;DHT22;206;48.782;9.252;2022-07-10T11:50:38;24.10;15.60
439;DHT22;206;48.782;9.252;2022-07-10T11:53:04;24.10;15.80
439;DHT22;206;48.782;9.252;2022-07-10T11:55:30;24.00;15.70
439;DHT22;206;48.782;9.252;2022-07-10T11:58:18;23.60;15.90
439;DHT22;206;48.782;9.252;2022-07-10T12:00:56;23.50;15.20
439;DHT22;206;48.782;9.252;2022-07-10T12:03:22;23.30;16.10
439;DHT22;206;48.782;9.252;2022-07-10T12:05:48;23.30;16.60
439;DHT22;206;48.782;9.252;2022-07-10T12:08:16;23.10;16.90
439;DHT22;206;48.782;9.252;2022-07-10T12:10:42;23.10;16.60
439;DHT22;206;48.782;9.252;2022-07-10T12:13:13;23.20;16.40
439;DHT22;206;48.782;9.252;2022-07-10T12:15:41;23.30;16.00
439;DHT22;206;48.782;9.252;2022-07-10T12:18:16;23.40;15.70
439;DHT22;206;48.782;9.252;2022-07-10T12:20:43;23.60;14.80
439;DHT22;206;48.782;9.252;2022-07-10T12:23:15;23.60;14.80
439;DHT22;206;48.782;9.252;2022-07-10T12:25:46;24.00;13.90
439;DHT22;206;48.782;9.252;2022-07-10T12:28:15;24.30;13.50
439;DHT22;206;48.782;9.252;2022-07-10T12:30:45;24.50;14.20
439;DHT22;206;48.782;9.252;2022-07-10T12:33:15;24.20;14.20
439;DHT22;206;48.782;9.252;2022-07-10T12:35:53;24.20;14.30
439;DHT22;206;48.782;9.252;2022-07-10T12:38:29;24.00;14.40
439;DHT22;206;48.782;9.252;2022-07-10T12:41:12;24.10;13.70
439;DHT22;206;48.782;9.252;2022-07-10T12:43:39;24.10;12.40
439;DHT22;206;48.782;9.252;2022-07-10T12:46:24;24.10;12.50
439;DHT22;206;48.782;9.252;2022-07-10T12:49:09;23.90;15.10
439;DHT22;206;48.782;9.252;2022-07-10T12:51:47;23.40;15.10
439;DHT22;206;48.782;9.252;2022-07-10T12:54:36;23.30;15.30
439;DHT22;206;48.782;9.252;2022-07-10T12:57:04;22.90;15.10
439;DHT22;206;48.782;9.252;2022-07-10T12:59:33;22.50;15.70
439;DHT22;206;48.782;9.252;2022-07-10T13:02:22;22.60;15.50
439;DHT22;206;48.782;9.252;2022-07-10T13:04:58;22.60;15.30
439;DHT22;206;48.782;9.252;2022-07-10T13:07:50;23.10;14.90
439;DHT22;206;48.782;9.252;2022-07-10T13:10:15;23.00;15.00
439;DHT22;206;48.782;9.252;2022-07-10T13:12:41;23.00;14.80
439;DHT22;206;48.782;9.252;2022-07-10T13:15:07;22.90;15.30
439;DHT22;206;48.782;9.252;2022-07-10T13:17:33;23.00;15.20
439;DHT22;206;48.782;9.252;2022-07-10T13:19:59;23.10;15.00
439;DHT22;206;48.782;9.252;2022-07-10T13:22:24;23.20;15.20
439;DHT22;206;48.782;9.252;2022-07-10T13:24:51;23.20;15.00
439;DHT22;206;48.782;9.252;2022-07-10T13:27:17;22.90;15.40
439;DHT22;206;48.782;9.252;2022-07-10T13:29:42;22.70;15.00
439;DHT22;206;48.782;9.252;2022-07-10T13:32:08;22.40;15.40
439;DHT22;206;48.782;9.252;2022-07-10T13:34:34;22.50;15.10
439;DHT22;206;48.782;9.252;2022-07-10T13:37:02;22.70;15.10
439;DHT22;206;48.782;9.252;2022-07-10T13:39:28;22.70;15.30
439;DHT22;206;48.782;9.252;2022-07-10T13:41:54;22.90;15.00
439;DHT22;206;48.782;9.252;2022-07-10T13:44:20;23.00;14.80
439;DHT22;206;48.782;9.252;2022-07-10T13:46:45;23.10;14.70
439;DHT22;206;48.782;9.252;2022-07-10T13:49:11;23.10;15.00
439;DHT22;206;48.782;9.252;2022-07-10T13:51:37;23.10;15.10
439;DHT22;206;48.782;9.252;2022-07-10T13:54:02;23.00;14.70
439;DHT22;206;48.782;9.252;2022-07-10T13:56:28;23.00;14.60
439;DHT22;206;48.782;9.252;2022-07-10T13:58:55;23.00;15.10
439;DHT22;206;48.782;9.252;2022-07-10T14:01:20;23.10;15.40
439;DHT22;206;48.782;9.252;2022-07-10T14:03:47;23.20;14.80
439;DHT22;206;48.782;9.252;2022-07-10T14:06:15;23.30;15.00
439;DHT22;206;48.782;9.252;2022-07-10T14:08:41;23.20;15.20
439;DHT22;206;48.782;9.252;2022-07-10T14:11:07;23.40;14.70
439;DHT22;206;48.782;9.252;2022-07-10T14:13:32;23.40;14.30
439;DHT22;206;48.782;9.252;2022-07-10T14:15:58;23.30;14.50
439;DHT22;206;48.782;9.252;2022-07-10T14:18:23;22.90;14.50
439;DHT22;206;48.782;9.252;2022-07-10T14:21:04;22.80;15.20
439;DHT22;206;48.782;9.252;2022-07-10T14:23:31;22.80;15.10
439;DHT22;206;48.782;9.252;2022-07-10T14:25:59;22.80;15.10
439;DHT22;206;48.782;9.252;2022-07-10T14:28:25;22.70;15.00
439;DHT22;206;48.782;9.252;2022-07-10T14:30:51;22.70;14.60
439;DHT22;206;48.782;9.252;2022-07-10T14:33:16;22.50;15.00
439;DHT22;206;48.782;9.252;2022-07-10T14:35:42;22.50;14.90
439;DHT22;206;48.782;9.252;2022-07-10T14:38:08;22.50;15.10
439;DHT22;206;48.782;9.252;2022-07-10T14:40:34;22.50;15.30
439;DHT22;206;48.782;9.252;2022-07-10T14:43:00;22.70;14.90
439;DHT22;206;48.782;9.252;2022-07-10T14:45:26;22.70;14.80
439;DHT22;206;48.782;9.252;2022-07-10T14:47:51;22.50;14.90
439;DHT22;206;48.782;9.252;2022-07-10T14:50:17;22.60;15.10
439;DHT22;206;48.782;9.252;2022-07-10T14:52:43;22.70;15.30
439;DHT22;206;48.782;9.252;2022-07-10T14:55:09;22.70;14.90
439;DHT22;206;48.782;9.252;2022-07-10T14:57:35;22.70;14.60
439;DHT22;206;48.782;9.252;2022-07-10T15:00:00;22.90;14.30
439;DHT22;206;48.782;9.252;2022-07-10T15:02:26;23.00;14.50
439;DHT22;206;48.782;9.252;2022-07-10T15:04:52;23.20;13.50
439;DHT22;206;48.782;9.252;2022-07-10T15:07:17;23.40;13.70
439;DHT22;206;48.782;9.252;2022-07-10T15:09:44;23.60;13.10
439;DHT22;206;48.782;9.252;2022-07-10T15:12:10;23.60;13.50
439;DHT22;206;48.782;9.252;2022-07-10T15:14:35;23.70;13.30
439;DHT22;206;48.782;9.252;2022-07-10T15:17:01;23.70;13.10
439;DHT22;206;48.782;9.252;2022-07-10T15:19:26;23.60;13.00
439;DHT22;206;48.782;9.252;2022-07-10T15:21:52;23.40;13.00
439;DHT22;206;48.782;9.252;2022-07-10T15:24:18;23.10;14.10
439;DHT22;206;48.782;9.252;2022-07-10T15:26:44;22.90;13.90
439;DHT22;206;48.782;9.252;2022-07-10T15:29:10;23.00;13.70
439;DHT22;206;48.782;9.252;2022-07-10T15:31:36;22.90;13.80
439;DHT22;206;48.782;9.252;2022-07-10T15:34:09;23.00;13.30
439;DHT22;206;48.782;9.252;2022-07-10T15:36:37;23.00;12.70
439;DHT22;206;48.782;9.252;2022-07-10T15:39:03;23.00;13.10
439;DHT22;206;48.782;9.252;2022-07-10T15:41:28;23.10;13.20
439;DHT22;206;48.782;9.252;2022-07-10T15:43:54;23.20;13.20
439;DHT22;206;48.782;9.252;2022-07-10T15:46:20;23.40;13.20
439;DHT22;206;48.782;9.252;2022-07-10T15:48:46;23.50;12.70
439;DHT22;206;48.782;9.252;2022-07-10T15:51:11;23.40;12.70
439;DHT22;206;48.782;9.252;2022-07-10T15:53:40;23.00;13.20
439;DHT22;206;48.782;9.252;2022-07-10T15:56:06;23.00;13.00
439;DHT22;206;48.782;9.252;2022-07-10T15:58:32;23.10;12.80
439;DHT22;206;48.782;9.252;2022-07-10T16:00:57;23.00;13.20
439;DHT22;206;48.782;9.252;2022-07-10T16:03:23;23.00;12.70
439;DHT22;206;48.782;9.252;2022-07-10T16:05:49;23.00;12.60
439;DHT22;206;48.782;9.252;2022-07-10T16:08:15;23.00;12.40
439;DHT22;206;48.782;9.252;2022-07-10T16:10:43;23.00;12.90
439;DHT22;206;48.782;9.252;2022-07-10T16:13:09;23.20;12.40
439;DHT22;206;48.782;9.252;2022-07-10T16:15:37;23.40;12.30
439;DHT22;206;48.782;9.252;2022-07-10T16:18:03;23.30;12.40
439;DHT22;206;48.782;9.252;2022-07-10T16:20:31;23.20;12.50
439;DHT22;206;48.782;9.252;2022-07-10T16:23:01;23.30;12.60
439;DHT22;206;48.782;9.252;2022-07-10T16:25:26;23.20;12.80
439;DHT22;206;48.782;9.252;2022-07-10T16:28:11;23.30;12.70
439;DHT22;206;48.782;9.252;2022-07-10T16:30:37;23.30;12.60
439;DHT22;206;48.782;9.252;2022-07-10T16:33:02;23.30;12.40
439;DHT22;206;48.782;9.252;2022-07-10T16:35:28;23.40;12.60
439;DHT22;206;48.782;9.252;2022-07-10T16:37:54;23.50;12.60
439;DHT22;206;48.782;9.252;2022-07-10T16:40:21;23.50;12.30
439;DHT22;206;48.782;9.252;2022-07-10T16:42:46;23.60;12.80
439;DHT22;206;48.782;9.252;2022-07-10T16:45:15;23.70;12.10
439;DHT22;206;48.782;9.252;2022-07-10T16:47:41;23.70;11.90
439;DHT22;206;48.782;9.252;2022-07-10T16:50:07;23.70;11.90
439;DHT22;206;48.782;9.252;2022-07-10T16:52:33;23.50;12.10
439;DHT22;206;48.782;9.252;2022-07-10T16:55:03;23.20;12.70
439;DHT22;206;48.782;9.252;2022-07-10T16:57:29;23.10;12.90
439;DHT22;206;48.782;9.252;2022-07-10T16:59:54;23.00;13.40
439;DHT22;206;48.782;9.252;2022-07-10T17:02:21;22.90;13.50
439;DHT22;206;48.782;9.252;2022-07-10T17:04:46;22.80;13.50
439;DHT22;206;48.782;9.252;2022-07-10T17:07:12;23.00;13.50
439;DHT22;206;48.782;9.252;2022-07-10T17:09:38;23.10;13.60
439;DHT22;206;48.782;9.252;2022-07-10T17:12:05;23.20;13.20